sensor_id;sensor_type;location;lat;lon;timestamp;temperature;humidity
45489;DHT22;31236;55.026;61.042;2023-07-24T00:00:59;13.80;84.60
45489;DHT22;31236;55.026;61.042;2023-07-24T00:03:30;13.80;84.80
45489;DHT22;31236;55.026;61.042;2023-07-24T00:06:00;13.80;85.00
45489;DHT22;31236;55.026;61.042;2023-07-24T00:11:02;13.80;85.20
45489;DHT22;31236;55.026;61.042;2023-07-24T00:13:32;13.80;85.00
45489;DHT22;31236;55.026;61.042;2023-07-24T00:18:54;13.80;85.30
45489;DHT22;31236;55.026;61.042;2023-07-24T00:21:25;13.80;85.30
45489;DHT22;31236;55.026;61.042;2023-07-24T00:23:55;13.80;85.70
45489;DHT22;31236;55.026;61.042;2023-07-24T00:26:25;13.90;85.90
45489;DHT22;31236;55.026;61.042;2023-07-24T00:28:55;13.90;86.10
45489;DHT22;31236;55.026;61.042;2023-07-24T00:31:25;14.00;86.20
45489;DHT22;31236;55.026;61.042;2023-07-24T00:33:56;14.10;86.10
45489;DHT22;31236;55.026;61.042;2023-07-24T00:36:27;14.20;86.10
45489;DHT22;31236;55.026;61.042;2023-07-24T00:38:57;14.30;86.00
45489;DHT22;31236;55.026;61.042;2023-07-24T00:41:27;14.40;85.90
45489;DHT22;31236;55.026;61.042;2023-07-24T00:43:57;14.50;85.80
45489;DHT22;31236;55.026;61.042;2023-07-24T00:46:28;14.60;85.70
45489;DHT22;31236;55.026;61.042;2023-07-24T00:49:00;14.70;85.60
45489;DHT22;31236;55.026;61.042;2023-07-24T00:51:30;14.70;85.40
45489;DHT22;31236;55.026;61.042;2023-07-24T00:54:02;14.70;85.50
45489;DHT22;31236;55.026;61.042;2023-07-24T00:56:33;14.70;85.50
45489;DHT22;31236;55.026;61.042;2023-07-24T00:59:03;14.60;85.50
45489;DHT22;31236;55.026;61.042;2023-07-24T01:01:34;14.60;85.60
45489;DHT22;31236;55.026;61.042;2023-07-24T01:04:06;14.60;85.70
45489;DHT22;31236;55.026;61.042;2023-07-24T01:06:37;14.70;85.90
45489;DHT22;31236;55.026;61.042;2023-07-24T01:09:07;14.70;85.70
45489;DHT22;31236;55.026;61.042;2023-07-24T01:17:42;14.80;85.60
45489;DHT22;31236;55.026;61.042;2023-07-24T01:20:12;14.90;85.40
45489;DHT22;31236;55.026;61.042;2023-07-24T01:26:13;14.90;85.50
45489;DHT22;31236;55.026;61.042;2023-07-24T01:29:22;15.00;85.30
45489;DHT22;31236;55.026;61.042;2023-07-24T01:31:52;15.10;85.20
45489;DHT22;31236;55.026;61.042;2023-07-24T01:34:22;15.10;85.30
45489;DHT22;31236;55.026;61.042;2023-07-24T01:36:53;15.20;85.40
45489;DHT22;31236;55.026;61.042;2023-07-24T01:39:23;15.30;85.40
45489;DHT22;31236;55.026;61.042;2023-07-24T01:41:55;15.40;85.30
45489;DHT22;31236;55.026;61.042;2023-07-24T01:44:25;15.50;85.30
45489;DHT22;31236;55.026;61.042;2023-07-24T01:46:56;15.50;85.20
45489;DHT22;31236;55.026;61.042;2023-07-24T01:49:26;15.60;85.10
45489;DHT22;31236;55.026;61.042;2023-07-24T01:51:57;15.70;84.90
45489;DHT22;31236;55.026;61.042;2023-07-24T01:54:27;15.80;84.70
45489;DHT22;31236;55.026;61.042;2023-07-24T01:56:57;15.90;84.50
45489;DHT22;31236;55.026;61.042;2023-07-24T01:59:27;16.00;84.30
45489;DHT22;31236;55.026;61.042;2023-07-24T02:01:57;16.10;84.20
45489;DHT22;31236;55.026;61.042;2023-07-24T02:04:27;16.20;84.00
45489;DHT22;31236;55.026;61.042;2023-07-24T02:06:57;16.30;83.90
45489;DHT22;31236;55.026;61.042;2023-07-24T02:09:28;16.40;83.80
45489;DHT22;31236;55.026;61.042;2023-07-24T02:11:58;16.40;83.50
45489;DHT22;31236;55.026;61.042;2023-07-24T02:14:29;16.50;83.30
45489;DHT22;31236;55.026;61.042;2023-07-24T02:16:59;16.60;83.20
45489;DHT22;31236;55.026;61.042;2023-07-24T02:19:30;16.70;83.10
45489;DHT22;31236;55.026;61.042;2023-07-24T02:22:00;16.80;83.00
45489;DHT22;31236;55.026;61.042;2023-07-24T02:24:30;16.90;82.90
45489;DHT22;31236;55.026;61.042;2023-07-24T02:27:02;17.00;82.80
45489;DHT22;31236;55.026;61.042;2023-07-24T02:29:32;17.10;82.50
45489;DHT22;31236;55.026;61.042;2023-07-24T02:32:03;17.20;82.30
45489;DHT22;31236;55.026;61.042;2023-07-24T02:34:34;17.20;82.20
45489;DHT22;31236;55.026;61.042;2023-07-24T02:37:04;17.30;82.00
45489;DHT22;31236;55.026;61.042;2023-07-24T02:39:34;17.40;82.00
45489;DHT22;31236;55.026;61.042;2023-07-24T02:42:05;17.50;81.80
45489;DHT22;31236;55.026;61.042;2023-07-24T02:44:35;17.60;81.60
45489;DHT22;31236;55.026;61.042;2023-07-24T02:47:05;17.70;81.30
45489;DHT22;31236;55.026;61.042;2023-07-24T02:49:35;17.90;81.20
45489;DHT22;31236;55.026;61.042;2023-07-24T02:52:06;18.00;80.80
45489;DHT22;31236;55.026;61.042;2023-07-24T02:54:36;18.10;80.40
45489;DHT22;31236;55.026;61.042;2023-07-24T02:57:07;18.20;80.10
45489;DHT22;31236;55.026;61.042;2023-07-24T02:59:37;18.30;79.70
45489;DHT22;31236;55.026;61.042;2023-07-24T03:02:07;18.50;79.20
45489;DHT22;31236;55.026;61.042;2023-07-24T03:04:37;18.60;78.60
45489;DHT22;31236;55.026;61.042;2023-07-24T03:07:07;18.70;78.20
45489;DHT22;31236;55.026;61.042;2023-07-24T03:09:38;18.70;77.70
45489;DHT22;31236;55.026;61.042;2023-07-24T03:12:08;18.80;77.80
45489;DHT22;31236;55.026;61.042;2023-07-24T03:14:39;18.90;77.50
45489;DHT22;31236;55.026;61.042;2023-07-24T03:17:08;19.00;77.10
45489;DHT22;31236;55.026;61.042;2023-07-24T03:19:38;19.10;77.00
45489;DHT22;31236;55.026;61.042;2023-07-24T03:22:09;19.10;76.70
45489;DHT22;31236;55.026;61.042;2023-07-24T03:24:39;19.20;76.10
45489;DHT22;31236;55.026;61.042;2023-07-24T03:27:09;19.40;75.20
45489;DHT22;31236;55.026;61.042;2023-07-24T03:29:40;19.40;74.40
45489;DHT22;31236;55.026;61.042;2023-07-24T03:32:10;19.50;73.70
45489;DHT22;31236;55.026;61.042;2023-07-24T03:34:41;19.60;73.20
45489;DHT22;31236;55.026;61.042;2023-07-24T03:37:11;19.70;73.10
45489;DHT22;31236;55.026;61.042;2023-07-24T03:39:42;19.80;72.60
45489;DHT22;31236;55.026;61.042;2023-07-24T03:42:23;19.90;72.10
45489;DHT22;31236;55.026;61.042;2023-07-24T03:44:44;19.90;71.80
45489;DHT22;31236;55.026;61.042;2023-07-24T03:47:14;20.00;71.40
45489;DHT22;31236;55.026;61.042;2023-07-24T03:49:45;20.10;70.20
45489;DHT22;31236;55.026;61.042;2023-07-24T03:52:15;20.20;69.60
45489;DHT22;31236;55.026;61.042;2023-07-24T03:54:45;20.30;69.90
45489;DHT22;31236;55.026;61.042;2023-07-24T03:57:15;20.40;69.60
45489;DHT22;31236;55.026;61.042;2023-07-24T03:59:45;20.50;69.30
45489;DHT22;31236;55.026;61.042;2023-07-24T04:02:15;20.50;69.10
45489;DHT22;31236;55.026;61.042;2023-07-24T04:04:45;20.70;68.80
45489;DHT22;31236;55.026;61.042;2023-07-24T04:07:15;20.80;68.20
45489;DHT22;31236;55.026;61.042;2023-07-24T04:09:46;20.80;67.90
45489;DHT22;31236;55.026;61.042;2023-07-24T04:12:16;20.90;67.70
45489;DHT22;31236;55.026;61.042;2023-07-24T04:14:46;21.00;67.40
45489;DHT22;31236;55.026;61.042;2023-07-24T04:17:18;21.10;66.80
45489;DHT22;31236;55.026;61.042;2023-07-24T04:19:48;21.10;66.20
45489;DHT22;31236;55.026;61.042;2023-07-24T04:22:18;21.20;66.10
45489;DHT22;31236;55.026;61.042;2023-07-24T04:24:50;21.30;65.80
45489;DHT22;31236;55.026;61.042;2023-07-24T04:27:20;21.40;65.70
45489;DHT22;31236;55.026;61.042;2023-07-24T04:29:50;21.40;65.00
45489;DHT22;31236;55.026;61.042;2023-07-24T04:32:20;21.50;64.50
45489;DHT22;31236;55.026;61.042;2023-07-24T04:34:50;21.50;63.70
45489;DHT22;31236;55.026;61.042;2023-07-24T04:37:20;21.60;63.60
45489;DHT22;31236;55.026;61.042;2023-07-24T04:39:50;21.70;62.70
45489;DHT22;31236;55.026;61.042;2023-07-24T04:42:20;21.80;62.20
45489;DHT22;31236;55.026;61.042;2023-07-24T04:44:50;21.90;61.80
45489;DHT22;31236;55.026;61.042;2023-07-24T04:47:20;22.00;61.90
45489;DHT22;31236;55.026;61.042;2023-07-24T04:49:51;22.10;62.30
45489;DHT22;31236;55.026;61.042;2023-07-24T04:52:22;22.30;61.80
45489;DHT22;31236;55.026;61.042;2023-07-24T04:54:52;22.30;60.80
45489;DHT22;31236;55.026;61.042;2023-07-24T04:57:23;22.40;60.30
45489;DHT22;31236;55.026;61.042;2023-07-24T04:59:53;22.40;59.90
45489;DHT22;31236;55.026;61.042;2023-07-24T05:02:23;22.40;59.60
45489;DHT22;31236;55.026;61.042;2023-07-24T05:04:52;22.50;59.20
45489;DHT22;31236;55.026;61.042;2023-07-24T05:07:22;22.50;58.90
45489;DHT22;31236;55.026;61.042;2023-07-24T05:09:52;22.60;58.90
45489;DHT22;31236;55.026;61.042;2023-07-24T05:12:22;22.60;58.70
45489;DHT22;31236;55.026;61.042;2023-07-24T05:14:52;22.50;58.70
45489;DHT22;31236;55.026;61.042;2023-07-24T05:17:21;22.60;58.70
45489;DHT22;31236;55.026;61.042;2023-07-24T05:19:52;22.70;58.50
45489;DHT22;31236;55.026;61.042;2023-07-24T05:22:21;22.80;58.00
45489;DHT22;31236;55.026;61.042;2023-07-24T05:24:52;23.00;58.10
45489;DHT22;31236;55.026;61.042;2023-07-24T05:27:22;23.20;58.10
45489;DHT22;31236;55.026;61.042;2023-07-24T05:29:52;23.30;57.30
45489;DHT22;31236;55.026;61.042;2023-07-24T05:32:22;23.50;56.90
45489;DHT22;31236;55.026;61.042;2023-07-24T05:34:51;23.50;56.40
45489;DHT22;31236;55.026;61.042;2023-07-24T05:37:21;23.30;56.00
45489;DHT22;31236;55.026;61.042;2023-07-24T05:39:51;23.20;56.30
45489;DHT22;31236;55.026;61.042;2023-07-24T05:42:21;23.30;56.30
45489;DHT22;31236;55.026;61.042;2023-07-24T05:44:50;23.40;56.40
45489;DHT22;31236;55.026;61.042;2023-07-24T05:47:20;23.40;56.60
45489;DHT22;31236;55.026;61.042;2023-07-24T05:49:50;23.30;56.10
45489;DHT22;31236;55.026;61.042;2023-07-24T05:52:20;23.30;55.60
45489;DHT22;31236;55.026;61.042;2023-07-24T05:54:50;23.20;55.50
45489;DHT22;31236;55.026;61.042;2023-07-24T05:57:20;23.00;55.30
45489;DHT22;31236;55.026;61.042;2023-07-24T05:59:50;22.90;55.40
45489;DHT22;31236;55.026;61.042;2023-07-24T06:02:20;22.70;55.60
45489;DHT22;31236;55.026;61.042;2023-07-24T06:04:50;22.80;56.20
45489;DHT22;31236;55.026;61.042;2023-07-24T06:07:20;23.10;56.30
45489;DHT22;31236;55.026;61.042;2023-07-24T06:09:49;23.40;56.20
45489;DHT22;31236;55.026;61.042;2023-07-24T06:12:19;23.70;55.40
45489;DHT22;31236;55.026;61.042;2023-07-24T06:14:49;24.00;54.80
45489;DHT22;31236;55.026;61.042;2023-07-24T06:17:18;24.30;53.30
45489;DHT22;31236;55.026;61.042;2023-07-24T06:19:48;24.20;52.60
45489;DHT22;31236;55.026;61.042;2023-07-24T06:22:18;23.90;52.70
45489;DHT22;31236;55.026;61.042;2023-07-24T06:24:48;23.70;52.90
45489;DHT22;31236;55.026;61.042;2023-07-24T06:27:18;23.50;53.00
45489;DHT22;31236;55.026;61.042;2023-07-24T06:29:47;23.40;53.20
45489;DHT22;31236;55.026;61.042;2023-07-24T06:32:17;23.30;53.80
45489;DHT22;31236;55.026;61.042;2023-07-24T06:34:47;23.30;54.40
45489;DHT22;31236;55.026;61.042;2023-07-24T06:37:17;23.50;54.00
45489;DHT22;31236;55.026;61.042;2023-07-24T06:39:46;23.90;53.70
45489;DHT22;31236;55.026;61.042;2023-07-24T06:42:16;24.20;53.40
45489;DHT22;31236;55.026;61.042;2023-07-24T06:44:46;24.30;52.90
45489;DHT22;31236;55.026;61.042;2023-07-24T06:47:16;24.20;52.70
45489;DHT22;31236;55.026;61.042;2023-07-24T06:49:46;24.00;52.20
45489;DHT22;31236;55.026;61.042;2023-07-24T06:52:16;23.80;52.40
45489;DHT22;31236;55.026;61.042;2023-07-24T06:54:46;23.60;52.60
45489;DHT22;31236;55.026;61.042;2023-07-24T06:57:15;23.60;52.70
45489;DHT22;31236;55.026;61.042;2023-07-24T06:59:45;23.70;52.30
45489;DHT22;31236;55.026;61.042;2023-07-24T07:02:15;23.80;52.20
45489;DHT22;31236;55.026;61.042;2023-07-24T07:04:44;23.90;52.10
45489;DHT22;31236;55.026;61.042;2023-07-24T07:07:14;24.10;52.30
45489;DHT22;31236;55.026;61.042;2023-07-24T07:09:43;24.20;51.50
45489;DHT22;31236;55.026;61.042;2023-07-24T07:12:13;24.40;51.30
45489;DHT22;31236;55.026;61.042;2023-07-24T07:14:43;24.60;51.00
45489;DHT22;31236;55.026;61.042;2023-07-24T07:17:13;24.70;50.90
45489;DHT22;31236;55.026;61.042;2023-07-24T07:19:42;24.90;50.40
45489;DHT22;31236;55.026;61.042;2023-07-24T07:22:12;25.00;50.00
45489;DHT22;31236;55.026;61.042;2023-07-24T07:24:42;25.10;49.90
45489;DHT22;31236;55.026;61.042;2023-07-24T07:27:13;25.20;50.30
45489;DHT22;31236;55.026;61.042;2023-07-24T07:29:45;25.20;49.50
45489;DHT22;31236;55.026;61.042;2023-07-24T07:32:15;25.40;50.00
45489;DHT22;31236;55.026;61.042;2023-07-24T07:34:44;25.60;49.80
45489;DHT22;31236;55.026;61.042;2023-07-24T07:37:14;25.70;49.40
45489;DHT22;31236;55.026;61.042;2023-07-24T07:39:44;25.70;48.40
45489;DHT22;31236;55.026;61.042;2023-07-24T07:42:14;25.70;48.00
45489;DHT22;31236;55.026;61.042;2023-07-24T07:44:44;25.80;47.40
45489;DHT22;31236;55.026;61.042;2023-07-24T07:47:14;25.80;46.80
45489;DHT22;31236;55.026;61.042;2023-07-24T07:49:44;25.80;46.30
45489;DHT22;31236;55.026;61.042;2023-07-24T07:52:13;25.90;46.10
45489;DHT22;31236;55.026;61.042;2023-07-24T07:55:04;25.90;45.60
45489;DHT22;31236;55.026;61.042;2023-07-24T07:57:36;26.00;45.60
45489;DHT22;31236;55.026;61.042;2023-07-24T08:00:07;26.10;45.80
45489;DHT22;31236;55.026;61.042;2023-07-24T08:02:38;26.30;45.90
45489;DHT22;31236;55.026;61.042;2023-07-24T08:05:10;26.40;45.80
45489;DHT22;31236;55.026;61.042;2023-07-24T08:07:40;26.50;45.60
45489;DHT22;31236;55.026;61.042;2023-07-24T08:10:11;26.70;45.50
45489;DHT22;31236;55.026;61.042;2023-07-24T08:12:42;26.90;45.10
45489;DHT22;31236;55.026;61.042;2023-07-24T08:15:12;27.00;44.70
45489;DHT22;31236;55.026;61.042;2023-07-24T08:17:41;27.00;43.90
45489;DHT22;31236;55.026;61.042;2023-07-24T08:20:12;26.70;43.80
45489;DHT22;31236;55.026;61.042;2023-07-24T08:22:42;26.50;44.20
45489;DHT22;31236;55.026;61.042;2023-07-24T08:25:11;26.40;43.30
45489;DHT22;31236;55.026;61.042;2023-07-24T08:27:41;26.10;43.30
45489;DHT22;31236;55.026;61.042;2023-07-24T08:30:12;25.90;43.20
45489;DHT22;31236;55.026;61.042;2023-07-24T08:32:42;25.80;43.00
45489;DHT22;31236;55.026;61.042;2023-07-24T08:35:13;25.90;42.70
45489;DHT22;31236;55.026;61.042;2023-07-24T08:38:02;26.00;43.00
45489;DHT22;31236;55.026;61.042;2023-07-24T08:40:32;26.20;43.40
45489;DHT22;31236;55.026;61.042;2023-07-24T08:43:03;26.50;43.40
45489;DHT22;31236;55.026;61.042;2023-07-24T08:45:33;26.80;43.20
45489;DHT22;31236;55.026;61.042;2023-07-24T08:48:03;26.90;42.70
45489;DHT22;31236;55.026;61.042;2023-07-24T08:50:33;26.90;42.30
45489;DHT22;31236;55.026;61.042;2023-07-24T08:53:03;26.90;42.80
45489;DHT22;31236;55.026;61.042;2023-07-24T08:55:34;26.70;41.70
45489;DHT22;31236;55.026;61.042;2023-07-24T08:58:03;26.40;41.00
45489;DHT22;31236;55.026;61.042;2023-07-24T09:00:34;26.20;41.30
45489;DHT22;31236;55.026;61.042;2023-07-24T09:03:04;26.00;41.20
45489;DHT22;31236;55.026;61.042;2023-07-24T09:05:34;25.80;41.10
45489;DHT22;31236;55.026;61.042;2023-07-24T09:08:05;25.70;42.20
45489;DHT22;31236;55.026;61.042;2023-07-24T09:10:34;25.80;42.60
45489;DHT22;31236;55.026;61.042;2023-07-24T09:13:04;25.80;43.20
45489;DHT22;31236;55.026;61.042;2023-07-24T09:15:54;25.90;43.20
45489;DHT22;31236;55.026;61.042;2023-07-24T09:18:24;25.80;43.10
45489;DHT22;31236;55.026;61.042;2023-07-24T09:20:54;25.80;43.50
45489;DHT22;31236;55.026;61.042;2023-07-24T09:23:43;25.70;43.50
45489;DHT22;31236;55.026;61.042;2023-07-24T09:26:12;25.70;43.90
45489;DHT22;31236;55.026;61.042;2023-07-24T09:28:50;25.80;44.00
45489;DHT22;31236;55.026;61.042;2023-07-24T09:31:15;25.80;43.80
45489;DHT22;31236;55.026;61.042;2023-07-24T09:33:44;25.70;43.80
45489;DHT22;31236;55.026;61.042;2023-07-24T09:36:15;25.80;44.00
45489;DHT22;31236;55.026;61.042;2023-07-24T09:38:44;25.90;44.10
45489;DHT22;31236;55.026;61.042;2023-07-24T09:41:14;26.20;43.80
45489;DHT22;31236;55.026;61.042;2023-07-24T09:43:44;26.30;43.20
45489;DHT22;31236;55.026;61.042;2023-07-24T09:46:13;26.40;42.70
45489;DHT22;31236;55.026;61.042;2023-07-24T09:48:43;26.50;43.20
45489;DHT22;31236;55.026;61.042;2023-07-24T09:51:13;26.60;43.00
45489;DHT22;31236;55.026;61.042;2023-07-24T09:56:37;26.90;42.70
45489;DHT22;31236;55.026;61.042;2023-07-24T09:59:07;27.00;42.00
45489;DHT22;31236;55.026;61.042;2023-07-24T10:01:39;27.20;41.40
45489;DHT22;31236;55.026;61.042;2023-07-24T10:04:10;27.10;40.90
45489;DHT22;31236;55.026;61.042;2023-07-24T10:06:43;27.10;41.20
45489;DHT22;31236;55.026;61.042;2023-07-24T10:09:13;27.30;41.80
45489;DHT22;31236;55.026;61.042;2023-07-24T10:11:45;27.40;42.10
45489;DHT22;31236;55.026;61.042;2023-07-24T10:14:16;27.50;41.50
45489;DHT22;31236;55.026;61.042;2023-07-24T10:16:46;27.60;41.10
45489;DHT22;31236;55.026;61.042;2023-07-24T10:19:17;27.40;41.10
45489;DHT22;31236;55.026;61.042;2023-07-24T10:21:48;27.30;41.20
45489;DHT22;31236;55.026;61.042;2023-07-24T10:24:19;27.10;41.20
45489;DHT22;31236;55.026;61.042;2023-07-24T10:26:54;26.90;41.60
45489;DHT22;31236;55.026;61.042;2023-07-24T10:35:21;26.90;41.90
45489;DHT22;31236;55.026;61.042;2023-07-24T10:40:44;26.40;42.20
45489;DHT22;31236;55.026;61.042;2023-07-24T10:46:44;26.20;42.40
45489;DHT22;31236;55.026;61.042;2023-07-24T10:49:14;26.00;42.60
45489;DHT22;31236;55.026;61.042;2023-07-24T10:51:45;26.00;42.70
45489;DHT22;31236;55.026;61.042;2023-07-24T10:54:20;25.90;42.70
45489;DHT22;31236;55.026;61.042;2023-07-24T10:56:47;25.90;43.20
45489;DHT22;31236;55.026;61.042;2023-07-24T10:59:16;26.00;43.10
45489;DHT22;31236;55.026;61.042;2023-07-24T11:01:46;26.20;42.90
45489;DHT22;31236;55.026;61.042;2023-07-24T11:06:52;26.60;43.70
45489;DHT22;31236;55.026;61.042;2023-07-24T11:09:55;26.90;43.10
45489;DHT22;31236;55.026;61.042;2023-07-24T11:11:53;27.20;42.90
45489;DHT22;31236;55.026;61.042;2023-07-24T11:14:23;27.20;43.70
45489;DHT22;31236;55.026;61.042;2023-07-24T11:16:55;27.40;43.10
45489;DHT22;31236;55.026;61.042;2023-07-24T11:19:26;27.20;42.80
45489;DHT22;31236;55.026;61.042;2023-07-24T11:24:28;26.50;43.10
45489;DHT22;31236;55.026;61.042;2023-07-24T11:26:58;26.40;43.20
45489;DHT22;31236;55.026;61.042;2023-07-24T11:29:30;26.30;43.10
45489;DHT22;31236;55.026;61.042;2023-07-24T11:32:03;26.10;43.40
45489;DHT22;31236;55.026;61.042;2023-07-24T11:34:34;26.00;43.70
45489;DHT22;31236;55.026;61.042;2023-07-24T11:37:05;26.00;43.60
45489;DHT22;31236;55.026;61.042;2023-07-24T11:39:35;26.00;43.80
45489;DHT22;31236;55.026;61.042;2023-07-24T11:42:25;25.80;43.90
45489;DHT22;31236;55.026;61.042;2023-07-24T11:45:15;25.80;43.80
45489;DHT22;31236;55.026;61.042;2023-07-24T11:48:08;25.80;43.70
45489;DHT22;31236;55.026;61.042;2023-07-24T11:51:13;25.80;43.60
45489;DHT22;31236;55.026;61.042;2023-07-24T11:53:18;25.70;43.80
45489;DHT22;31236;55.026;61.042;2023-07-24T11:55:43;25.70;43.90
45489;DHT22;31236;55.026;61.042;2023-07-24T11:58:15;25.80;44.40
45489;DHT22;31236;55.026;61.042;2023-07-24T12:00:46;25.80;44.60
45489;DHT22;31236;55.026;61.042;2023-07-24T12:03:22;25.90;44.30
45489;DHT22;31236;55.026;61.042;2023-07-24T12:05:54;25.90;44.10
45489;DHT22;31236;55.026;61.042;2023-07-24T12:08:43;26.20;43.60
45489;DHT22;31236;55.026;61.042;2023-07-24T12:11:33;26.40;43.20
45489;DHT22;31236;55.026;61.042;2023-07-24T12:14:03;26.60;43.10
45489;DHT22;31236;55.026;61.042;2023-07-24T12:17:07;26.60;43.20
45489;DHT22;31236;55.026;61.042;2023-07-24T12:19:08;26.80;43.50
45489;DHT22;31236;55.026;61.042;2023-07-24T12:21:37;26.90;43.30
45489;DHT22;31236;55.026;61.042;2023-07-24T12:24:07;27.00;43.20
45489;DHT22;31236;55.026;61.042;2023-07-24T12:26:37;27.10;43.00
45489;DHT22;31236;55.026;61.042;2023-07-24T12:29:06;27.20;42.60
45489;DHT22;31236;55.026;61.042;2023-07-24T12:31:36;27.20;42.50
45489;DHT22;31236;55.026;61.042;2023-07-24T12:34:06;27.20;42.40
45489;DHT22;31236;55.026;61.042;2023-07-24T12:36:36;27.30;42.00
45489;DHT22;31236;55.026;61.042;2023-07-24T12:39:06;27.30;41.80
45489;DHT22;31236;55.026;61.042;2023-07-24T12:41:37;27.20;41.50
45489;DHT22;31236;55.026;61.042;2023-07-24T12:44:07;27.10;41.90
45489;DHT22;31236;55.026;61.042;2023-07-24T12:46:36;27.00;41.10
45489;DHT22;31236;55.026;61.042;2023-07-24T12:49:06;27.10;41.00
45489;DHT22;31236;55.026;61.042;2023-07-24T12:51:39;27.10;41.00
45489;DHT22;31236;55.026;61.042;2023-07-24T12:54:08;27.10;41.10
45489;DHT22;31236;55.026;61.042;2023-07-24T12:56:38;27.10;41.10
45489;DHT22;31236;55.026;61.042;2023-07-24T12:59:10;27.10;40.40
45489;DHT22;31236;55.026;61.042;2023-07-24T13:01:40;27.10;40.90
45489;DHT22;31236;55.026;61.042;2023-07-24T13:04:12;27.10;40.90
45489;DHT22;31236;55.026;61.042;2023-07-24T13:06:42;27.10;40.60
45489;DHT22;31236;55.026;61.042;2023-07-24T13:09:12;27.10;40.10
45489;DHT22;31236;55.026;61.042;2023-07-24T13:11:42;27.00;39.60
45489;DHT22;31236;55.026;61.042;2023-07-24T13:14:13;27.00;39.60
45489;DHT22;31236;55.026;61.042;2023-07-24T13:16:43;27.00;39.70
45489;DHT22;31236;55.026;61.042;2023-07-24T13:19:13;26.90;39.40
45489;DHT22;31236;55.026;61.042;2023-07-24T13:21:42;26.70;39.40
45489;DHT22;31236;55.026;61.042;2023-07-24T13:24:13;26.40;39.50
45489;DHT22;31236;55.026;61.042;2023-07-24T13:26:43;26.30;39.60
45489;DHT22;31236;55.026;61.042;2023-07-24T13:29:15;26.10;39.90
45489;DHT22;31236;55.026;61.042;2023-07-24T13:31:46;26.00;40.50
45489;DHT22;31236;55.026;61.042;2023-07-24T13:34:16;26.00;40.70
45489;DHT22;31236;55.026;61.042;2023-07-24T13:36:48;25.90;40.50
45489;DHT22;31236;55.026;61.042;2023-07-24T13:39:18;25.80;40.40
45489;DHT22;31236;55.026;61.042;2023-07-24T13:41:49;25.80;40.80
45489;DHT22;31236;55.026;61.042;2023-07-24T13:44:20;25.70;41.40
45489;DHT22;31236;55.026;61.042;2023-07-24T13:46:50;25.80;41.80
45489;DHT22;31236;55.026;61.042;2023-07-24T13:49:21;25.70;42.10
45489;DHT22;31236;55.026;61.042;2023-07-24T13:51:51;25.80;42.70
45489;DHT22;31236;55.026;61.042;2023-07-24T13:54:21;25.70;41.80
45489;DHT22;31236;55.026;61.042;2023-07-24T13:56:53;25.80;41.70
45489;DHT22;31236;55.026;61.042;2023-07-24T13:59:23;25.80;42.30
45489;DHT22;31236;55.026;61.042;2023-07-24T14:01:55;25.70;42.30
45489;DHT22;31236;55.026;61.042;2023-07-24T14:04:24;25.70;42.60
45489;DHT22;31236;55.026;61.042;2023-07-24T14:06:54;25.70;42.70
45489;DHT22;31236;55.026;61.042;2023-07-24T14:09:24;25.70;42.60
45489;DHT22;31236;55.026;61.042;2023-07-24T14:11:55;25.80;43.10
45489;DHT22;31236;55.026;61.042;2023-07-24T14:14:24;25.80;43.70
45489;DHT22;31236;55.026;61.042;2023-07-24T14:16:54;25.70;43.80
45489;DHT22;31236;55.026;61.042;2023-07-24T14:19:24;25.70;44.40
45489;DHT22;31236;55.026;61.042;2023-07-24T14:21:54;25.70;44.60
45489;DHT22;31236;55.026;61.042;2023-07-24T14:24:23;25.60;44.10
45489;DHT22;31236;55.026;61.042;2023-07-24T14:26:53;25.60;43.90
45489;DHT22;31236;55.026;61.042;2023-07-24T14:29:25;25.50;44.10
45489;DHT22;31236;55.026;61.042;2023-07-24T14:31:54;25.40;44.20
45489;DHT22;31236;55.026;61.042;2023-07-24T14:34:24;25.40;44.20
45489;DHT22;31236;55.026;61.042;2023-07-24T14:36:54;25.40;45.00
45489;DHT22;31236;55.026;61.042;2023-07-24T14:39:24;25.30;45.70
45489;DHT22;31236;55.026;61.042;2023-07-24T14:41:54;25.20;45.70
45489;DHT22;31236;55.026;61.042;2023-07-24T14:44:24;25.20;45.60
45489;DHT22;31236;55.026;61.042;2023-07-24T14:46:56;25.10;45.60
45489;DHT22;31236;55.026;61.042;2023-07-24T14:49:28;25.10;46.00
45489;DHT22;31236;55.026;61.042;2023-07-24T14:51:58;25.00;46.90
45489;DHT22;31236;55.026;61.042;2023-07-24T14:54:28;25.00;46.70
45489;DHT22;31236;55.026;61.042;2023-07-24T14:56:59;24.90;46.80
45489;DHT22;31236;55.026;61.042;2023-07-24T14:59:29;24.90;46.60
45489;DHT22;31236;55.026;61.042;2023-07-24T15:01:58;24.80;46.50
45489;DHT22;31236;55.026;61.042;2023-07-24T15:04:28;24.80;46.80
45489;DHT22;31236;55.026;61.042;2023-07-24T15:06:58;24.80;46.60
45489;DHT22;31236;55.026;61.042;2023-07-24T15:09:28;24.70;46.50
45489;DHT22;31236;55.026;61.042;2023-07-24T15:11:58;24.50;46.30
45489;DHT22;31236;55.026;61.042;2023-07-24T15:14:27;24.50;46.40
45489;DHT22;31236;55.026;61.042;2023-07-24T15:16:57;24.40;46.60
45489;DHT22;31236;55.026;61.042;2023-07-24T15:19:29;24.30;46.60
45489;DHT22;31236;55.026;61.042;2023-07-24T15:21:59;24.30;46.50
45489;DHT22;31236;55.026;61.042;2023-07-24T15:24:29;24.20;46.40
45489;DHT22;31236;55.026;61.042;2023-07-24T15:26:59;24.10;46.60
45489;DHT22;31236;55.026;61.042;2023-07-24T15:29:30;24.10;46.80
45489;DHT22;31236;55.026;61.042;2023-07-24T15:32:02;24.10;46.80
45489;DHT22;31236;55.026;61.042;2023-07-24T15:34:32;24.00;46.80
45489;DHT22;31236;55.026;61.042;2023-07-24T15:37:03;23.90;47.00
45489;DHT22;31236;55.026;61.042;2023-07-24T15:39:33;23.90;47.10
45489;DHT22;31236;55.026;61.042;2023-07-24T15:42:03;23.90;47.30
45489;DHT22;31236;55.026;61.042;2023-07-24T15:44:33;23.90;47.50
45489;DHT22;31236;55.026;61.042;2023-07-24T15:47:05;23.80;47.60
45489;DHT22;31236;55.026;61.042;2023-07-24T15:49:35;23.80;47.70
45489;DHT22;31236;55.026;61.042;2023-07-24T15:52:06;23.80;48.00
45489;DHT22;31236;55.026;61.042;2023-07-24T15:54:38;23.70;47.90
45489;DHT22;31236;55.026;61.042;2023-07-24T15:57:09;23.70;48.10
45489;DHT22;31236;55.026;61.042;2023-07-24T15:59:39;23.70;48.20
45489;DHT22;31236;55.026;61.042;2023-07-24T16:02:09;23.70;48.30
45489;DHT22;31236;55.026;61.042;2023-07-24T16:04:39;23.70;48.50
45489;DHT22;31236;55.026;61.042;2023-07-24T16:07:11;23.60;48.60
45489;DHT22;31236;55.026;61.042;2023-07-24T16:09:42;23.50;48.70
45489;DHT22;31236;55.026;61.042;2023-07-24T16:12:12;23.50;48.90